sensor_id;sensor_type;location;lat;lon;timestamp;temperature;humidity
52621;DHT22;38515;53.160;6.990;2023-02-03T00:01:18;8.50;99.90
52621;DHT22;38515;53.160;6.990;2023-02-03T00:03:44;8.50;99.90
52621;DHT22;38515;53.160;6.990;2023-02-03T00:06:10;8.50;99.90
52621;DHT22;38515;53.160;6.990;2023-02-03T00:08:37;8.50;99.90
52621;DHT22;38515;53.160;6.990;2023-02-03T00:11:03;8.50;99.90
52621;DHT22;38515;53.160;6.990;2023-02-03T00:13:29;8.50;99.90
52621;DHT22;38515;53.160;6.990;2023-02-03T00:15:55;8.50;99.90
52621;DHT22;38515;53.160;6.990;2023-02-03T00:18:21;8.50;99.90
52621;DHT22;38515;53.160;6.990;2023-02-03T00:20:47;8.50;99.90
52621;DHT22;38515;53.160;6.990;2023-02-03T00:23:13;8.50;99.90
52621;DHT22;38515;53.160;6.990;2023-02-03T00:25:39;8.50;99.90
52621;DHT22;38515;53.160;6.990;2023-02-03T00:28:05;8.50;99.90
52621;DHT22;38515;53.160;6.990;2023-02-03T00:30:33;8.60;99.90
52621;DHT22;38515;53.160;6.990;2023-02-03T00:33:00;8.60;99.90
52621;DHT22;38515;53.160;6.990;2023-02-03T00:35:26;8.60;99.90
52621;DHT22;38515;53.160;6.990;2023-02-03T00:37:54;8.60;99.90
52621;DHT22;38515;53.160;6.990;2023-02-03T00:40:22;8.60;99.90
52621;DHT22;38515;53.160;6.990;2023-02-03T00:42:48;8.50;99.90
52621;DHT22;38515;53.160;6.990;2023-02-03T00:45:14;9.60;99.90
52621;DHT22;38515;53.160;6.990;2023-02-03T00:47:40;8.50;99.90
52621;DHT22;38515;53.160;6.990;2023-02-03T00:50:06;8.50;99.90
52621;DHT22;38515;53.160;6.990;2023-02-03T00:52:32;8.60;99.90
52621;DHT22;38515;53.160;6.990;2023-02-03T00:54:58;8.50;99.90
52621;DHT22;38515;53.160;6.990;2023-02-03T00:57:24;8.50;99.90
52621;DHT22;38515;53.160;6.990;2023-02-03T00:59:50;8.40;99.90
52621;DHT22;38515;53.160;6.990;2023-02-03T01:02:16;8.40;99.90
52621;DHT22;38515;53.160;6.990;2023-02-03T01:04:42;8.40;99.90
52621;DHT22;38515;53.160;6.990;2023-02-03T01:07:09;8.50;99.90
52621;DHT22;38515;53.160;6.990;2023-02-03T01:09:36;8.40;99.90
52621;DHT22;38515;53.160;6.990;2023-02-03T01:12:02;8.30;99.90
52621;DHT22;38515;53.160;6.990;2023-02-03T01:14:29;8.40;99.90
52621;DHT22;38515;53.160;6.990;2023-02-03T01:16:55;8.30;99.90
52621;DHT22;38515;53.160;6.990;2023-02-03T01:19:21;8.30;99.90
52621;DHT22;38515;53.160;6.990;2023-02-03T01:21:47;8.30;99.90
52621;DHT22;38515;53.160;6.990;2023-02-03T01:24:13;8.30;99.90
52621;DHT22;38515;53.160;6.990;2023-02-03T01:26:40;8.30;99.90
52621;DHT22;38515;53.160;6.990;2023-02-03T01:29:06;8.40;99.90
52621;DHT22;38515;53.160;6.990;2023-02-03T01:31:35;8.40;99.90
52621;DHT22;38515;53.160;6.990;2023-02-03T01:34:05;8.40;99.90
52621;DHT22;38515;53.160;6.990;2023-02-03T01:36:33;8.40;99.90
52621;DHT22;38515;53.160;6.990;2023-02-03T01:39:00;8.30;99.90
52621;DHT22;38515;53.160;6.990;2023-02-03T01:41:28;8.30;99.90
52621;DHT22;38515;53.160;6.990;2023-02-03T01:43:57;8.30;99.90
52621;DHT22;38515;53.160;6.990;2023-02-03T01:46:45;8.30;99.90
52621;DHT22;38515;53.160;6.990;2023-02-03T01:49:20;8.30;99.90
52621;DHT22;38515;53.160;6.990;2023-02-03T01:51:48;8.30;99.90
52621;DHT22;38515;53.160;6.990;2023-02-03T01:54:17;8.30;99.90
52621;DHT22;38515;53.160;6.990;2023-02-03T01:56:59;8.30;99.90
52621;DHT22;38515;53.160;6.990;2023-02-03T01:59:29;8.30;99.90
52621;DHT22;38515;53.160;6.990;2023-02-03T02:01:57;8.30;99.90
52621;DHT22;38515;53.160;6.990;2023-02-03T02:04:27;8.30;99.90
52621;DHT22;38515;53.160;6.990;2023-02-03T02:06:56;8.30;99.90
52621;DHT22;38515;53.160;6.990;2023-02-03T02:09:24;8.30;99.90
52621;DHT22;38515;53.160;6.990;2023-02-03T02:11:50;8.30;99.90
52621;DHT22;38515;53.160;6.990;2023-02-03T02:14:16;8.40;99.90
52621;DHT22;38515;53.160;6.990;2023-02-03T02:22:21;8.50;99.90
52621;DHT22;38515;53.160;6.990;2023-02-03T02:25:26;8.50;99.90
52621;DHT22;38515;53.160;6.990;2023-02-03T02:33:53;8.50;99.90
52621;DHT22;38515;53.160;6.990;2023-02-03T02:39:12;8.40;99.90
52621;DHT22;38515;53.160;6.990;2023-02-03T02:41:57;8.40;99.90
52621;DHT22;38515;53.160;6.990;2023-02-03T02:44:37;8.50;99.90
52621;DHT22;38515;53.160;6.990;2023-02-03T02:47:19;8.50;99.90
52621;DHT22;38515;53.160;6.990;2023-02-03T02:52:15;8.50;99.90
52621;DHT22;38515;53.160;6.990;2023-02-03T02:54:46;8.50;99.90
52621;DHT22;38515;53.160;6.990;2023-02-03T02:57:13;8.50;99.90
52621;DHT22;38515;53.160;6.990;2023-02-03T02:59:39;8.50;99.90
52621;DHT22;38515;53.160;6.990;2023-02-03T03:02:05;8.50;99.90
52621;DHT22;38515;53.160;6.990;2023-02-03T03:04:32;8.40;99.90
52621;DHT22;38515;53.160;6.990;2023-02-03T03:07:01;8.40;99.90
52621;DHT22;38515;53.160;6.990;2023-02-03T03:09:41;8.40;99.90
52621;DHT22;38515;53.160;6.990;2023-02-03T03:12:22;8.50;99.90
52621;DHT22;38515;53.160;6.990;2023-02-03T03:14:54;8.40;99.90
52621;DHT22;38515;53.160;6.990;2023-02-03T03:17:25;8.50;99.90
52621;DHT22;38515;53.160;6.990;2023-02-03T03:19:56;8.50;99.90
52621;DHT22;38515;53.160;6.990;2023-02-03T03:22:29;8.50;99.90
52621;DHT22;38515;53.160;6.990;2023-02-03T03:25:04;8.50;99.90
52621;DHT22;38515;53.160;6.990;2023-02-03T03:27:37;8.40;99.90
52621;DHT22;38515;53.160;6.990;2023-02-03T03:30:09;8.50;99.90
52621;DHT22;38515;53.160;6.990;2023-02-03T03:32:35;8.50;99.90
52621;DHT22;38515;53.160;6.990;2023-02-03T03:35:03;8.50;99.90
52621;DHT22;38515;53.160;6.990;2023-02-03T03:40:08;8.40;99.90
52621;DHT22;38515;53.160;6.990;2023-02-03T03:42:58;9.80;99.90
52621;DHT22;38515;53.160;6.990;2023-02-03T03:50:46;8.40;99.90
52621;DHT22;38515;53.160;6.990;2023-02-03T03:53:16;8.40;99.90
52621;DHT22;38515;53.160;6.990;2023-02-03T03:55:47;8.40;99.90
52621;DHT22;38515;53.160;6.990;2023-02-03T03:58:27;8.40;99.90
52621;DHT22;38515;53.160;6.990;2023-02-03T04:00:57;8.40;99.90
52621;DHT22;38515;53.160;6.990;2023-02-03T04:03:38;8.50;99.90
52621;DHT22;38515;53.160;6.990;2023-02-03T04:06:06;8.50;99.90
52621;DHT22;38515;53.160;6.990;2023-02-03T04:08:32;8.60;99.90
52621;DHT22;38515;53.160;6.990;2023-02-03T04:10:58;8.50;99.90
52621;DHT22;38515;53.160;6.990;2023-02-03T04:13:23;8.50;99.90
52621;DHT22;38515;53.160;6.990;2023-02-03T04:15:49;8.50;99.90
52621;DHT22;38515;53.160;6.990;2023-02-03T04:18:15;8.50;99.90
52621;DHT22;38515;53.160;6.990;2023-02-03T04:20:42;8.50;99.90
52621;DHT22;38515;53.160;6.990;2023-02-03T04:23:08;8.50;99.90
52621;DHT22;38515;53.160;6.990;2023-02-03T04:25:35;8.50;99.90
52621;DHT22;38515;53.160;6.990;2023-02-03T04:28:01;8.50;99.90
52621;DHT22;38515;53.160;6.990;2023-02-03T04:30:26;8.50;99.90
52621;DHT22;38515;53.160;6.990;2023-02-03T04:32:53;8.40;99.90
52621;DHT22;38515;53.160;6.990;2023-02-03T04:35:19;8.40;99.90
52621;DHT22;38515;53.160;6.990;2023-02-03T04:37:45;8.50;99.90
52621;DHT22;38515;53.160;6.990;2023-02-03T04:40:11;8.60;99.90
52621;DHT22;38515;53.160;6.990;2023-02-03T04:42:38;8.60;99.90
52621;DHT22;38515;53.160;6.990;2023-02-03T04:45:05;8.60;99.90
52621;DHT22;38515;53.160;6.990;2023-02-03T04:47:32;8.70;99.90
52621;DHT22;38515;53.160;6.990;2023-02-03T04:49:57;8.60;99.90
52621;DHT22;38515;53.160;6.990;2023-02-03T04:52:23;8.60;99.90
52621;DHT22;38515;53.160;6.990;2023-02-03T04:54:49;8.60;99.90
52621;DHT22;38515;53.160;6.990;2023-02-03T04:57:15;8.60;99.90
52621;DHT22;38515;53.160;6.990;2023-02-03T04:59:41;8.60;99.90
52621;DHT22;38515;53.160;6.990;2023-02-03T05:02:07;8.60;99.90
52621;DHT22;38515;53.160;6.990;2023-02-03T05:04:33;8.70;99.90
52621;DHT22;38515;53.160;6.990;2023-02-03T05:06:59;8.70;99.90
52621;DHT22;38515;53.160;6.990;2023-02-03T05:09:25;8.70;99.90
52621;DHT22;38515;53.160;6.990;2023-02-03T05:11:52;8.70;99.90
52621;DHT22;38515;53.160;6.990;2023-02-03T05:14:18;8.70;99.90
52621;DHT22;38515;53.160;6.990;2023-02-03T05:16:44;8.70;99.90
52621;DHT22;38515;53.160;6.990;2023-02-03T05:19:10;8.70;99.90
52621;DHT22;38515;53.160;6.990;2023-02-03T05:21:36;8.80;99.90
52621;DHT22;38515;53.160;6.990;2023-02-03T05:24:02;8.80;99.90
52621;DHT22;38515;53.160;6.990;2023-02-03T05:26:32;8.80;99.90
52621;DHT22;38515;53.160;6.990;2023-02-03T05:29:00;8.80;99.90
52621;DHT22;38515;53.160;6.990;2023-02-03T05:31:25;8.80;99.90
52621;DHT22;38515;53.160;6.990;2023-02-03T05:33:51;8.80;99.90
52621;DHT22;38515;53.160;6.990;2023-02-03T05:36:17;8.70;99.90
52621;DHT22;38515;53.160;6.990;2023-02-03T05:38:43;8.70;99.90
52621;DHT22;38515;53.160;6.990;2023-02-03T05:41:11;8.70;99.90
52621;DHT22;38515;53.160;6.990;2023-02-03T05:43:55;8.70;99.90
52621;DHT22;38515;53.160;6.990;2023-02-03T05:46:21;8.70;99.90
52621;DHT22;38515;53.160;6.990;2023-02-03T05:48:47;8.60;99.90
52621;DHT22;38515;53.160;6.990;2023-02-03T05:51:13;8.70;99.90
52621;DHT22;38515;53.160;6.990;2023-02-03T05:53:39;8.70;99.90
52621;DHT22;38515;53.160;6.990;2023-02-03T05:56:05;8.60;99.90
52621;DHT22;38515;53.160;6.990;2023-02-03T05:58:31;8.70;99.90
52621;DHT22;38515;53.160;6.990;2023-02-03T06:00:57;8.70;99.90
52621;DHT22;38515;53.160;6.990;2023-02-03T06:03:23;8.70;99.90
52621;DHT22;38515;53.160;6.990;2023-02-03T06:05:49;8.70;99.90
52621;DHT22;38515;53.160;6.990;2023-02-03T06:08:15;8.70;99.90
52621;DHT22;38515;53.160;6.990;2023-02-03T06:10:41;8.70;99.90
52621;DHT22;38515;53.160;6.990;2023-02-03T06:13:14;8.70;99.90
52621;DHT22;38515;53.160;6.990;2023-02-03T06:15:40;8.70;99.90
52621;DHT22;38515;53.160;6.990;2023-02-03T06:18:07;8.80;99.90
52621;DHT22;38515;53.160;6.990;2023-02-03T06:20:33;8.70;99.90
52621;DHT22;38515;53.160;6.990;2023-02-03T06:22:59;8.70;99.90
52621;DHT22;38515;53.160;6.990;2023-02-03T06:25:25;8.70;99.90
52621;DHT22;38515;53.160;6.990;2023-02-03T06:27:51;9.60;99.90
52621;DHT22;38515;53.160;6.990;2023-02-03T06:30:17;8.70;99.90
52621;DHT22;38515;53.160;6.990;2023-02-03T06:32:45;8.70;99.90
52621;DHT22;38515;53.160;6.990;2023-02-03T06:35:12;8.70;99.90
52621;DHT22;38515;53.160;6.990;2023-02-03T06:37:38;8.70;99.90
52621;DHT22;38515;53.160;6.990;2023-02-03T06:40:04;8.70;99.90
52621;DHT22;38515;53.160;6.990;2023-02-03T06:42:30;8.70;99.90
52621;DHT22;38515;53.160;6.990;2023-02-03T06:44:57;8.70;99.90
52621;DHT22;38515;53.160;6.990;2023-02-03T06:47:23;8.60;99.90
52621;DHT22;38515;53.160;6.990;2023-02-03T06:49:48;8.60;99.90
52621;DHT22;38515;53.160;6.990;2023-02-03T06:52:14;8.60;99.90
52621;DHT22;38515;53.160;6.990;2023-02-03T06:54:40;8.60;99.90
52621;DHT22;38515;53.160;6.990;2023-02-03T06:57:06;8.60;99.90
52621;DHT22;38515;53.160;6.990;2023-02-03T06:59:32;8.60;99.90
52621;DHT22;38515;53.160;6.990;2023-02-03T07:01:58;8.60;99.90
52621;DHT22;38515;53.160;6.990;2023-02-03T07:04:24;8.60;99.90
52621;DHT22;38515;53.160;6.990;2023-02-03T07:06:53;8.70;99.90
52621;DHT22;38515;53.160;6.990;2023-02-03T07:09:18;8.70;99.90
52621;DHT22;38515;53.160;6.990;2023-02-03T07:11:44;8.70;99.90
52621;DHT22;38515;53.160;6.990;2023-02-03T07:14:10;8.60;99.90
52621;DHT22;38515;53.160;6.990;2023-02-03T07:16:36;8.60;99.90
52621;DHT22;38515;53.160;6.990;2023-02-03T07:19:02;8.70;99.90
52621;DHT22;38515;53.160;6.990;2023-02-03T07:21:28;8.80;99.90
52621;DHT22;38515;53.160;6.990;2023-02-03T07:23:54;8.80;99.90
52621;DHT22;38515;53.160;6.990;2023-02-03T07:26:20;8.80;99.90
52621;DHT22;38515;53.160;6.990;2023-02-03T07:28:47;8.80;99.90
52621;DHT22;38515;53.160;6.990;2023-02-03T07:31:13;8.80;99.90
52621;DHT22;38515;53.160;6.990;2023-02-03T07:33:39;8.90;99.90
52621;DHT22;38515;53.160;6.990;2023-02-03T07:36:06;8.90;99.90
52621;DHT22;38515;53.160;6.990;2023-02-03T07:38:32;8.90;99.90
52621;DHT22;38515;53.160;6.990;2023-02-03T07:40:58;8.90;99.90
52621;DHT22;38515;53.160;6.990;2023-02-03T07:43:24;8.90;99.90
52621;DHT22;38515;53.160;6.990;2023-02-03T07:45:50;9.00;99.90
52621;DHT22;38515;53.160;6.990;2023-02-03T07:48:16;9.00;99.90
52621;DHT22;38515;53.160;6.990;2023-02-03T07:50:42;9.10;99.90
52621;DHT22;38515;53.160;6.990;2023-02-03T07:53:07;9.10;99.90
52621;DHT22;38515;53.160;6.990;2023-02-03T07:55:36;9.00;99.90
52621;DHT22;38515;53.160;6.990;2023-02-03T07:58:02;9.10;99.90
52621;DHT22;38515;53.160;6.990;2023-02-03T08:00:28;9.10;99.90
52621;DHT22;38515;53.160;6.990;2023-02-03T08:02:54;9.00;99.90
52621;DHT22;38515;53.160;6.990;2023-02-03T08:05:19;9.10;99.90
52621;DHT22;38515;53.160;6.990;2023-02-03T08:07:45;9.10;99.90
52621;DHT22;38515;53.160;6.990;2023-02-03T08:10:13;9.00;99.90
52621;DHT22;38515;53.160;6.990;2023-02-03T08:12:40;9.00;99.90
52621;DHT22;38515;53.160;6.990;2023-02-03T08:15:08;9.00;99.90
52621;DHT22;38515;53.160;6.990;2023-02-03T08:17:34;8.90;99.90
52621;DHT22;38515;53.160;6.990;2023-02-03T08:20:00;8.90;99.90
52621;DHT22;38515;53.160;6.990;2023-02-03T08:22:26;8.90;99.90
52621;DHT22;38515;53.160;6.990;2023-02-03T08:24:52;8.90;99.90
52621;DHT22;38515;53.160;6.990;2023-02-03T08:27:20;9.00;99.90
52621;DHT22;38515;53.160;6.990;2023-02-03T08:29:47;9.00;99.90
52621;DHT22;38515;53.160;6.990;2023-02-03T08:32:16;9.00;99.90
52621;DHT22;38515;53.160;6.990;2023-02-03T08:34:43;9.10;99.90
52621;DHT22;38515;53.160;6.990;2023-02-03T08:37:11;9.10;99.90
52621;DHT22;38515;53.160;6.990;2023-02-03T08:39:37;9.10;99.90
52621;DHT22;38515;53.160;6.990;2023-02-03T08:42:03;9.10;99.90
52621;DHT22;38515;53.160;6.990;2023-02-03T08:44:30;9.90;99.90
52621;DHT22;38515;53.160;6.990;2023-02-03T08:46:57;9.10;99.90
52621;DHT22;38515;53.160;6.990;2023-02-03T08:49:25;9.10;99.90
52621;DHT22;38515;53.160;6.990;2023-02-03T08:51:51;9.10;99.90
52621;DHT22;38515;53.160;6.990;2023-02-03T08:54:18;9.10;99.90
52621;DHT22;38515;53.160;6.990;2023-02-03T08:56:44;9.10;99.90
52621;DHT22;38515;53.160;6.990;2023-02-03T08:59:11;9.20;99.90
52621;DHT22;38515;53.160;6.990;2023-02-03T09:01:37;9.20;99.90
52621;DHT22;38515;53.160;6.990;2023-02-03T09:04:06;9.20;99.90
52621;DHT22;38515;53.160;6.990;2023-02-03T09:06:34;9.20;99.90
52621;DHT22;38515;53.160;6.990;2023-02-03T09:09:00;9.20;99.90
52621;DHT22;38515;53.160;6.990;2023-02-03T09:11:26;9.20;99.90
52621;DHT22;38515;53.160;6.990;2023-02-03T09:13:52;9.20;99.90
52621;DHT22;38515;53.160;6.990;2023-02-03T09:16:18;9.20;99.90
52621;DHT22;38515;53.160;6.990;2023-02-03T09:18:46;9.20;99.90
52621;DHT22;38515;53.160;6.990;2023-02-03T09:21:13;9.20;99.90
52621;DHT22;38515;53.160;6.990;2023-02-03T09:23:43;9.20;99.90
52621;DHT22;38515;53.160;6.990;2023-02-03T09:26:13;9.20;99.90
52621;DHT22;38515;53.160;6.990;2023-02-03T09:28:39;9.20;99.90
52621;DHT22;38515;53.160;6.990;2023-02-03T09:31:08;9.20;99.90
52621;DHT22;38515;53.160;6.990;2023-02-03T09:33:34;9.20;99.90
52621;DHT22;38515;53.160;6.990;2023-02-03T09:36:00;9.20;99.90
52621;DHT22;38515;53.160;6.990;2023-02-03T09:38:27;9.30;99.90
52621;DHT22;38515;53.160;6.990;2023-02-03T09:41:02;9.30;99.90
52621;DHT22;38515;53.160;6.990;2023-02-03T09:43:59;9.30;99.90
52621;DHT22;38515;53.160;6.990;2023-02-03T09:46:34;9.30;99.90
52621;DHT22;38515;53.160;6.990;2023-02-03T09:51:57;9.30;99.90
52621;DHT22;38515;53.160;6.990;2023-02-03T09:54:33;10.90;99.90
52621;DHT22;38515;53.160;6.990;2023-02-03T09:57:06;9.40;99.90
52621;DHT22;38515;53.160;6.990;2023-02-03T09:59:38;9.40;99.90
52621;DHT22;38515;53.160;6.990;2023-02-03T10:10:38;9.50;99.90
52621;DHT22;38515;53.160;6.990;2023-02-03T10:16:20;9.40;99.90
52621;DHT22;38515;53.160;6.990;2023-02-03T10:18:53;9.40;99.90
52621;DHT22;38515;53.160;6.990;2023-02-03T10:21:44;9.50;99.90
52621;DHT22;38515;53.160;6.990;2023-02-03T10:24:19;9.60;99.90
52621;DHT22;38515;53.160;6.990;2023-02-03T10:26:47;9.70;99.90
52621;DHT22;38515;53.160;6.990;2023-02-03T10:31:48;8.50;99.90
52621;DHT22;38515;53.160;6.990;2023-02-03T10:34:15;9.90;99.90
52621;DHT22;38515;53.160;6.990;2023-02-03T10:36:55;9.90;99.90
52621;DHT22;38515;53.160;6.990;2023-02-03T10:39:35;10.00;99.90
52621;DHT22;38515;53.160;6.990;2023-02-03T10:42:03;10.00;99.90
52621;DHT22;38515;53.160;6.990;2023-02-03T10:44:52;10.00;99.90
52621;DHT22;38515;53.160;6.990;2023-02-03T10:47:29;10.00;99.90
52621;DHT22;38515;53.160;6.990;2023-02-03T10:50:05;10.00;99.90
52621;DHT22;38515;53.160;6.990;2023-02-03T10:52:34;10.10;99.90
52621;DHT22;38515;53.160;6.990;2023-02-03T10:55:27;10.10;99.90
52621;DHT22;38515;53.160;6.990;2023-02-03T10:57:55;10.10;99.90
52621;DHT22;38515;53.160;6.990;2023-02-03T11:00:27;10.10;99.90
52621;DHT22;38515;53.160;6.990;2023-02-03T11:05:29;10.10;99.90
52621;DHT22;38515;53.160;6.990;2023-02-03T11:07:55;10.00;99.90
52621;DHT22;38515;53.160;6.990;2023-02-03T11:10:28;10.10;99.90
52621;DHT22;38515;53.160;6.990;2023-02-03T11:16:17;10.00;99.90
52621;DHT22;38515;53.160;6.990;2023-02-03T11:21:40;10.00;99.90
52621;DHT22;38515;53.160;6.990;2023-02-03T11:24:27;10.10;99.90
52621;DHT22;38515;53.160;6.990;2023-02-03T11:29:31;10.00;99.90
52621;DHT22;38515;53.160;6.990;2023-02-03T11:32:05;9.90;99.90
52621;DHT22;38515;53.160;6.990;2023-02-03T11:34:38;9.80;99.90
52621;DHT22;38515;53.160;6.990;2023-02-03T11:37:31;9.80;99.90
52621;DHT22;38515;53.160;6.990;2023-02-03T11:42:38;9.70;99.90
52621;DHT22;38515;53.160;6.990;2023-02-03T11:47:47;9.80;99.90
52621;DHT22;38515;53.160;6.990;2023-02-03T11:50:56;9.70;99.90
52621;DHT22;38515;53.160;6.990;2023-02-03T11:59:14;9.50;99.90
52621;DHT22;38515;53.160;6.990;2023-02-03T12:07:47;9.80;99.90
52621;DHT22;38515;53.160;6.990;2023-02-03T12:13:35;9.60;99.90
52621;DHT22;38515;53.160;6.990;2023-02-03T12:16:41;9.60;99.90
52621;DHT22;38515;53.160;6.990;2023-02-03T12:32:59;9.30;99.90
52621;DHT22;38515;53.160;6.990;2023-02-03T12:35:37;9.20;99.90
52621;DHT22;38515;53.160;6.990;2023-02-03T12:46:02;9.20;99.90
52621;DHT22;38515;53.160;6.990;2023-02-03T12:48:59;9.20;99.90
52621;DHT22;38515;53.160;6.990;2023-02-03T12:51:56;9.20;99.90
52621;DHT22;38515;53.160;6.990;2023-02-03T12:54:42;9.30;99.90
52621;DHT22;38515;53.160;6.990;2023-02-03T13:02:28;9.60;99.90
52621;DHT22;38515;53.160;6.990;2023-02-03T13:05:16;9.50;99.90
52621;DHT22;38515;53.160;6.990;2023-02-03T13:08:00;9.30;99.90
52621;DHT22;38515;53.160;6.990;2023-02-03T13:10:44;9.20;99.90
52621;DHT22;38515;53.160;6.990;2023-02-03T13:13:16;9.20;99.90
52621;DHT22;38515;53.160;6.990;2023-02-03T13:15:47;9.10;99.90
52621;DHT22;38515;53.160;6.990;2023-02-03T13:21:15;8.90;99.90
52621;DHT22;38515;53.160;6.990;2023-02-03T13:23:44;8.80;99.90
52621;DHT22;38515;53.160;6.990;2023-02-03T13:26:14;8.80;99.90
52621;DHT22;38515;53.160;6.990;2023-02-03T13:32:08;8.80;99.90
52621;DHT22;38515;53.160;6.990;2023-02-03T13:35:00;9.80;99.90
52621;DHT22;38515;53.160;6.990;2023-02-03T13:43:14;8.80;99.90
52621;DHT22;38515;53.160;6.990;2023-02-03T13:45:45;8.80;99.90
52621;DHT22;38515;53.160;6.990;2023-02-03T13:48:30;8.80;99.90
52621;DHT22;38515;53.160;6.990;2023-02-03T13:51:14;8.80;99.90
52621;DHT22;38515;53.160;6.990;2023-02-03T13:53:44;8.70;99.90
52621;DHT22;38515;53.160;6.990;2023-02-03T13:56:24;8.70;99.90
52621;DHT22;38515;53.160;6.990;2023-02-03T13:59:26;8.70;99.90
52621;DHT22;38515;53.160;6.990;2023-02-03T14:10:19;8.60;99.90
52621;DHT22;38515;53.160;6.990;2023-02-03T14:15:28;8.60;99.90
52621;DHT22;38515;53.160;6.990;2023-02-03T14:20:41;8.60;99.90
52621;DHT22;38515;53.160;6.990;2023-02-03T14:23:18;8.50;99.90
52621;DHT22;38515;53.160;6.990;2023-02-03T14:25:48;8.50;99.90
52621;DHT22;38515;53.160;6.990;2023-02-03T14:28:23;8.40;99.90
52621;DHT22;38515;53.160;6.990;2023-02-03T14:31:05;8.40;99.90
52621;DHT22;38515;53.160;6.990;2023-02-03T14:33:53;8.70;99.90
52621;DHT22;38515;53.160;6.990;2023-02-03T14:59:02;8.20;99.90
52621;DHT22;38515;53.160;6.990;2023-02-03T15:06:41;8.20;99.90
52621;DHT22;38515;53.160;6.990;2023-02-03T15:09:30;8.10;99.90
52621;DHT22;38515;53.160;6.990;2023-02-03T15:11:57;7.90;99.90
52621;DHT22;38515;53.160;6.990;2023-02-03T15:17:00;7.90;99.90
52621;DHT22;38515;53.160;6.990;2023-02-03T15:19:32;7.90;99.90
52621;DHT22;38515;53.160;6.990;2023-02-03T15:21:58;8.20;99.90
52621;DHT22;38515;53.160;6.990;2023-02-03T15:24:24;7.70;99.90
52621;DHT22;38515;53.160;6.990;2023-02-03T15:26:53;7.80;99.90
52621;DHT22;38515;53.160;6.990;2023-02-03T15:29:29;7.70;99.90
52621;DHT22;38515;53.160;6.990;2023-02-03T15:32:06;7.60;99.90
52621;DHT22;38515;53.160;6.990;2023-02-03T15:34:46;7.60;99.90
52621;DHT22;38515;53.160;6.990;2023-02-03T15:37:20;7.60;99.90
52621;DHT22;38515;53.160;6.990;2023-02-03T15:40:05;7.60;99.90
52621;DHT22;38515;53.160;6.990;2023-02-03T15:43:14;7.50;99.90
52621;DHT22;38515;53.160;6.990;2023-02-03T15:45:41;7.50;99.90
52621;DHT22;38515;53.160;6.990;2023-02-03T15:48:22;7.50;99.90
52621;DHT22;38515;53.160;6.990;2023-02-03T15:51:02;7.50;99.90
52621;DHT22;38515;53.160;6.990;2023-02-03T15:53:51;7.10;99.90
52621;DHT22;38515;53.160;6.990;2023-02-03T15:58:52;7.40;99.90
52621;DHT22;38515;53.160;6.990;2023-02-03T16:01:21;7.40;99.90
52621;DHT22;38515;53.160;6.990;2023-02-03T16:03:50;7.30;99.90
52621;DHT22;38515;53.160;6.990;2023-02-03T16:08:56;7.30;99.90
52621;DHT22;38515;53.160;6.990;2023-02-03T16:11:29;7.40;99.90
52621;DHT22;38515;53.160;6.990;2023-02-03T16:13:56;7.30;99.90
52621;DHT22;38515;53.160;6.990;2023-02-03T16:16:39;7.30;99.90
52621;DHT22;38515;53.160;6.990;2023-02-03T16:24:43;7.30;99.90
52621;DHT22;38515;53.160;6.990;2023-02-03T16:29:52;7.20;99.90
52621;DHT22;38515;53.160;6.990;2023-02-03T16:32:37;7.10;99.90
52621;DHT22;38515;53.160;6.990;2023-02-03T16:35:22;7.20;99.90
52621;DHT22;38515;53.160;6.990;2023-02-03T16:38:14;8.70;99.90
52621;DHT22;38515;53.160;6.990;2023-02-03T16:40:59;7.10;99.90
52621;DHT22;38515;53.160;6.990;2023-02-03T16:43:44;7.10;99.90
52621;DHT22;38515;53.160;6.990;2023-02-03T16:46:28;7.00;99.90
52621;DHT22;38515;53.160;6.990;2023-02-03T16:49:13;6.90;99.90
52621;DHT22;38515;53.160;6.990;2023-02-03T16:51:57;7.00;99.90
52621;DHT22;38515;53.160;6.990;2023-02-03T16:54:26;7.00;99.90
52621;DHT22;38515;53.160;6.990;2023-02-03T16:56:52;7.00;99.90
52621;DHT22;38515;53.160;6.990;2023-02-03T16:59:21;6.90;99.90
52621;DHT22;38515;53.160;6.990;2023-02-03T17:01:47;6.80;99.90
52621;DHT22;38515;53.160;6.990;2023-02-03T17:04:13;7.20;99.90
52621;DHT22;38515;53.160;6.990;2023-02-03T17:06:39;6.70;99.90
52621;DHT22;38515;53.160;6.990;2023-02-03T17:09:06;6.70;99.90
52621;DHT22;38515;53.160;6.990;2023-02-03T17:11:32;6.70;99.90
52621;DHT22;38515;53.160;6.990;2023-02-03T17:14:00;6.70;99.90
52621;DHT22;38515;53.160;6.990;2023-02-03T17:16:28;6.70;99.90
52621;DHT22;38515;53.160;6.990;2023-02-03T17:18:55;6.80;99.90
52621;DHT22;38515;53.160;6.990;2023-02-03T17:21:26;6.80;99.90
52621;DHT22;38515;53.160;6.990;2023-02-03T17:23:53;6.90;99.90
52621;DHT22;38515;53.160;6.990;2023-02-03T17:26:19;6.90;99.90
52621;DHT22;38515;53.160;6.990;2023-02-03T17:28:45;6.90;99.90
52621;DHT22;38515;53.160;6.990;2023-02-03T17:31:17;7.00;99.90
52621;DHT22;38515;53.160;6.990;2023-02-03T17:33:44;7.00;99.90
52621;DHT22;38515;53.160;6.990;2023-02-03T17:36:15;7.00;99.90
52621;DHT22;38515;53.160;6.990;2023-02-03T17:38:43;7.00;99.90
52621;DHT22;38515;53.160;6.990;2023-02-03T17:41:12;7.00;99.90
52621;DHT22;38515;53.160;6.990;2023-02-03T17:43:38;7.00;99.90
52621;DHT22;38515;53.160;6.990;2023-02-03T17:46:04;7.00;99.90
52621;DHT22;38515;53.160;6.990;2023-02-03T17:48:30;8.40;99.90
52621;DHT22;38515;53.160;6.990;2023-02-03T17:51:07;7.10;99.90
52621;DHT22;38515;53.160;6.990;2023-02-03T17:53:33;7.10;99.90
52621;DHT22;38515;53.160;6.990;2023-02-03T17:56:14;7.10;99.90
52621;DHT22;38515;53.160;6.990;2023-02-03T17:58:41;7.20;99.90
52621;DHT22;38515;53.160;6.990;2023-02-03T18:01:12;7.10;99.90
52621;DHT22;38515;53.160;6.990;2023-02-03T18:03:50;7.10;99.90
52621;DHT22;38515;53.160;6.990;2023-02-03T18:06:20;7.10;99.90
52621;DHT22;38515;53.160;6.990;2023-02-03T18:08:47;7.10;99.90
52621;DHT22;38515;53.160;6.990;2023-02-03T18:11:14;7.10;99.90
52621;DHT22;38515;53.160;6.990;2023-02-03T18:13:43;7.10;99.90
52621;DHT22;38515;53.160;6.990;2023-02-03T18:16:15;7.10;99.90
52621;DHT22;38515;53.160;6.990;2023-02-03T18:18:42;6.90;99.90
52621;DHT22;38515;53.160;6.990;2023-02-03T18:21:11;7.00;99.90
52621;DHT22;38515;53.160;6.990;2023-02-03T18:23:37;7.00;99.90
52621;DHT22;38515;53.160;6.990;2023-02-03T18:26:08;7.10;99.90
52621;DHT22;38515;53.160;6.990;2023-02-03T18:28:35;7.00;99.90
52621;DHT22;38515;53.160;6.990;2023-02-03T18:31:10;6.90;99.90
52621;DHT22;38515;53.160;6.990;2023-02-03T18:33:37;6.90;99.90
52621;DHT22;38515;53.160;6.990;2023-02-03T18:36:04;6.90;99.90
52621;DHT22;38515;53.160;6.990;2023-02-03T18:38:31;6.90;99.90
52621;DHT22;38515;53.160;6.990;2023-02-03T18:41:10;7.00;99.90
52621;DHT22;38515;53.160;6.990;2023-02-03T18:43:36;6.80;99.90
52621;DHT22;38515;53.160;6.990;2023-02-03T18:46:07;6.70;99.90
52621;DHT22;38515;53.160;6.990;2023-02-03T18:48:33;6.80;99.90
52621;DHT22;38515;53.160;6.990;2023-02-03T18:51:00;6.70;99.90
52621;DHT22;38515;53.160;6.990;2023-02-03T18:53:27;6.80;99.90
52621;DHT22;38515;53.160;6.990;2023-02-03T18:55:54;6.70;99.90